Time;durP1;ratioP1;P1;durP2;ratioP2;P2;SDS_P1;SDS_P2;PMS_P1;PMS_P2;Temp;Humidity;BMP_temperature;BMP_pressure;BME280_temperature;BME280_humidity;BME280_pressure;Samples;Min_cycle;Max_cycle;Signal;HPM_P1;HPM_P2
2022/06/04 00:00:52;;;;;;;;;;;15.00;85.70;;;;;;5036123;28;19930;-79
2022/06/04 00:03:20;;;;;;;;;;;15.00;86.90;;;;;;5034533;28;19931;-79
2022/06/04 00:05:49;;;;;;;;;;;14.90;84.90;;;;;;5034689;28;19926;-80
2022/06/04 00:08:16;;;;;;;;;;;15.00;85.70;;;;;;5040818;28;19984;-79
2022/06/04 00:16:13;;;;;;;;;;;14.90;85.90;;;;;;5034307;28;20024;-79
2022/06/04 00:18:41;;;;;;;;;;;15.00;85.20;;;;;;5035660;28;19925;-79
2022/06/04 00:21:09;;;;;;;;;;;15.00;85.40;;;;;;5034736;28;19968;-79
2022/06/04 00:23:35;;;;;;;;;;;15.00;85.60;;;;;;5050886;28;20382;-79
2022/06/04 00:26:03;;;;;;;;;;;14.90;86.30;;;;;;5050221;28;20036;-79
2022/06/04 00:28:30;;;;;;;;;;;14.90;85.30;;;;;;5034251;28;19925;-79
2022/06/04 00:30:58;;;;;;;;;;;14.90;85.10;;;;;;5033856;28;19929;-79
2022/06/04 00:33:25;;;;;;;;;;;14.80;86.10;;;;;;5034191;28;19925;-79
2022/06/04 00:35:54;;;;;;;;;;;14.80;85.40;;;;;;5033982;28;20208;-79
2022/06/04 00:38:23;;;;;;;;;;;14.80;86.30;;;;;;5033830;28;20536;-79
2022/06/04 00:40:51;;;;;;;;;;;14.70;87.60;;;;;;5050175;28;20474;-79
2022/06/04 00:43:18;;;;;;;;;;;14.70;87.90;;;;;;5033998;28;19926;-79
2022/06/04 00:46:09;;;;;;;;;;;14.60;87.40;;;;;;5033843;28;19996;-79
2022/06/04 00:48:36;;;;;;;;;;;14.60;88.00;;;;;;5033520;28;20380;-79
2022/06/04 00:51:06;;;;;;;;;;;14.50;86.60;;;;;;5033940;28;20486;-79
2022/06/04 00:53:34;;;;;;;;;;;14.50;88.40;;;;;;5017808;28;19983;-79
2022/06/04 00:56:07;;;;;;;;;;;14.40;88.30;;;;;;5033760;28;19925;-79
2022/06/04 00:58:41;;;;;;;;;;;14.40;89.50;;;;;;5018996;28;19961;-79
2022/06/04 01:01:12;;;;;;;;;;;14.40;88.60;;;;;;5050274;28;19952;-79
2022/06/04 01:03:44;;;;;;;;;;;14.40;89.00;;;;;;5035210;28;19951;-79
2022/06/04 01:06:22;;;;;;;;;;;14.40;88.90;;;;;;5033439;28;19925;-79
2022/06/04 01:09:03;;;;;;;;;;;14.40;89.20;;;;;;5032978;28;19925;-79
2022/06/04 01:11:36;;;;;;;;;;;14.40;89.90;;;;;;5030215;28;19929;-79
2022/06/04 01:14:11;;;;;;;;;;;14.40;88.80;;;;;;5033443;28;19925;-79
2022/06/04 01:16:42;;;;;;;;;;;14.30;89.50;;;;;;5016869;28;20021;-79
2022/06/04 01:19:20;;;;;;;;;;;14.30;89.00;;;;;;5033723;28;19931;-79
2022/06/04 01:21:54;;;;;;;;;;;14.30;89.10;;;;;;5032959;28;19972;-79
2022/06/04 01:24:28;;;;;;;;;;;14.30;88.90;;;;;;5033070;28;19971;-79
2022/06/04 01:27:02;;;;;;;;;;;14.30;88.70;;;;;;5018220;28;20021;-79
2022/06/04 01:29:31;;;;;;;;;;;14.30;90.20;;;;;;5032992;28;20463;-79
2022/06/04 01:32:01;;;;;;;;;;;14.20;90.00;;;;;;5032766;28;19929;-79
2022/06/04 01:34:29;;;;;;;;;;;14.20;90.10;;;;;;5018492;28;20423;-79
2022/06/04 01:37:01;;;;;;;;;;;14.20;89.70;;;;;;5049581;28;20034;-79
2022/06/04 01:41:03;;;;;;;;;;;14.10;88.90;;;;;;5033283;28;19925;-79
2022/06/04 01:42:18;;;;;;;;;;;14.20;90.00;;;;;;5032253;28;19929;-79
2022/06/04 01:44:46;;;;;;;;;;;14.10;90.10;;;;;;5033209;28;19929;-79
2022/06/04 01:47:13;;;;;;;;;;;14.10;90.20;;;;;;5033898;28;19934;-79
2022/06/04 01:49:42;;;;;;;;;;;14.10;90.00;;;;;;5032639;28;19968;-79
2022/06/04 01:52:11;;;;;;;;;;;14.10;90.10;;;;;;5032956;28;20234;-79
2022/06/04 01:54:39;;;;;;;;;;;14.10;90.20;;;;;;5032786;28;19929;-79
2022/06/04 01:57:09;;;;;;;;;;;14.00;90.70;;;;;;5016448;28;19925;-79
2022/06/04 01:59:40;;;;;;;;;;;14.00;90.50;;;;;;5032820;28;19964;-78
2022/06/04 02:02:08;;;;;;;;;;;14.00;90.10;;;;;;5033399;28;20035;-79
2022/06/04 02:04:37;;;;;;;;;;;14.00;90.30;;;;;;5032536;28;20467;-79
2022/06/04 02:09:55;;;;;;;;;;;13.90;90.80;;;;;;5042820;28;20406;-79
2022/06/04 02:12:21;;;;;;;;;;;13.90;90.40;;;;;;5032606;28;19925;-79
2022/06/04 02:14:50;;;;;;;;;;;13.90;90.70;;;;;;5032571;28;19926;-79
2022/06/04 02:17:20;;;;;;;;;;;13.90;90.50;;;;;;5048622;28;19933;-79
2022/06/04 02:19:47;;;;;;;;;;;13.80;90.60;;;;;;5033790;28;20334;-79
2022/06/04 02:22:13;;;;;;;;;;;13.90;90.90;;;;;;5032774;28;20403;-79
2022/06/04 02:24:41;;;;;;;;;;;13.90;90.40;;;;;;5049401;28;19975;-79
2022/06/04 02:27:09;;;;;;;;;;;13.90;91.30;;;;;;5032040;28;19931;-79
2022/06/04 02:29:36;;;;;;;;;;;13.80;90.70;;;;;;5033539;28;19925;-79
2022/06/04 02:32:07;;;;;;;;;;;13.80;90.70;;;;;;5032264;28;19936;-79
2022/06/04 02:34:35;;;;;;;;;;;13.80;90.60;;;;;;5032401;28;20020;-79
2022/06/04 02:37:06;;;;;;;;;;;13.80;90.80;;;;;;5033137;28;19931;-79
2022/06/04 02:39:35;;;;;;;;;;;13.80;90.70;;;;;;5030550;28;19925;-79
2022/06/04 02:42:04;;;;;;;;;;;13.80;90.60;;;;;;5029938;28;20043;-78
2022/06/04 02:44:34;;;;;;;;;;;13.80;90.40;;;;;;5032282;28;19925;-79
2022/06/04 02:47:03;;;;;;;;;;;13.80;90.40;;;;;;5031732;28;20486;-79
2022/06/04 02:49:36;;;;;;;;;;;13.80;91.30;;;;;;5031638;28;19926;-78
2022/06/04 02:52:03;;;;;;;;;;;13.70;90.60;;;;;;5047979;28;20394;-79
2022/06/04 02:54:34;;;;;;;;;;;13.70;90.50;;;;;;5028420;28;19931;-79
2022/06/04 02:57:02;;;;;;;;;;;13.70;90.40;;;;;;5046732;28;19961;-79
2022/06/04 02:59:30;;;;;;;;;;;13.80;90.20;;;;;;5032275;28;19972;-78
2022/06/04 03:01:59;;;;;;;;;;;13.80;90.60;;;;;;5047646;28;19929;-79
2022/06/04 03:04:26;;;;;;;;;;;13.70;90.70;;;;;;5031793;28;19951;-78
2022/06/04 03:06:55;;;;;;;;;;;13.70;90.40;;;;;;5031548;28;19931;-78
2022/06/04 03:09:21;;;;;;;;;;;13.70;90.90;;;;;;5031818;28;19943;-78
2022/06/04 03:11:49;;;;;;;;;;;13.70;90.70;;;;;;5029671;28;19936;-79
2022/06/04 03:14:18;;;;;;;;;;;13.60;91.10;;;;;;5031840;28;19929;-78
2022/06/04 03:16:46;;;;;;;;;;;13.60;90.90;;;;;;5015086;28;19932;-79
2022/06/04 03:19:13;;;;;;;;;;;13.50;91.00;;;;;;5032685;28;19925;-79
2022/06/04 03:21:41;;;;;;;;;;;13.60;91.10;;;;;;5012986;28;19929;-79
2022/06/04 03:24:10;;;;;;;;;;;13.50;90.90;;;;;;5032802;28;19964;-79
2022/06/04 03:26:37;;;;;;;;;;;13.50;91.30;;;;;;5031309;28;19925;-79
2022/06/04 03:29:04;;;;;;;;;;;13.40;91.10;;;;;;5032757;28;19925;-78
2022/06/04 03:31:31;;;;;;;;;;;13.40;90.90;;;;;;5030449;28;20132;-79
2022/06/04 03:33:58;;;;;;;;;;;13.40;91.00;;;;;;5031474;28;19925;-79
2022/06/04 03:36:26;;;;;;;;;;;13.40;91.10;;;;;;5014904;28;19957;-79
2022/06/04 03:38:52;;;;;;;;;;;13.40;91.50;;;;;;5032757;28;19926;-79
2022/06/04 03:41:20;;;;;;;;;;;13.30;91.90;;;;;;5030690;28;20101;-78
2022/06/04 03:43:51;;;;;;;;;;;13.30;91.90;;;;;;5031479;28;19932;-79
2022/06/04 03:46:18;;;;;;;;;;;13.30;91.50;;;;;;5031776;28;19948;-78
2022/06/04 03:48:45;;;;;;;;;;;13.20;91.90;;;;;;5031233;28;19925;-79
2022/06/04 03:51:12;;;;;;;;;;;13.20;91.60;;;;;;5030305;28;20019;-79
2022/06/04 03:53:39;;;;;;;;;;;13.20;91.70;;;;;;5030713;28;19929;-79
2022/06/04 03:56:06;;;;;;;;;;;13.20;91.60;;;;;;5048882;28;20013;-79
2022/06/04 03:58:34;;;;;;;;;;;13.20;91.80;;;;;;5030914;28;19925;-79
2022/06/04 04:01:00;;;;;;;;;;;13.20;91.80;;;;;;5030452;28;19931;-79
2022/06/04 04:03:27;;;;;;;;;;;13.20;92.10;;;;;;5031158;28;19925;-79
2022/06/04 04:05:55;;;;;;;;;;;13.20;92.30;;;;;;5031355;28;19932;-78
2022/06/04 04:08:22;;;;;;;;;;;13.20;92.30;;;;;;5030973;28;19929;-79
2022/06/04 04:10:49;;;;;;;;;;;13.20;92.60;;;;;;5029975;28;19929;-79
2022/06/04 04:13:17;;;;;;;;;;;13.10;92.40;;;;;;5030950;28;20003;-78
2022/06/04 04:15:45;;;;;;;;;;;13.20;92.10;;;;;;5030549;28;19926;-79
2022/06/04 04:18:12;;;;;;;;;;;13.20;92.90;;;;;;5031024;28;19925;-79
2022/06/04 04:20:41;;;;;;;;;;;13.20;92.60;;;;;;5032340;28;20021;-79
2022/06/04 04:23:09;;;;;;;;;;;13.20;92.80;;;;;;5031786;28;20403;-79
2022/06/04 04:25:36;;;;;;;;;;;13.20;92.40;;;;;;5032379;28;19930;-79
2022/06/04 04:28:03;;;;;;;;;;;13.20;92.60;;;;;;5046726;28;19925;-79
2022/06/04 04:30:31;;;;;;;;;;;13.20;93.00;;;;;;5030470;28;20019;-79
2022/06/04 04:33:00;;;;;;;;;;;13.10;93.20;;;;;;5031696;28;19932;-79
2022/06/04 04:35:28;;;;;;;;;;;13.20;92.60;;;;;;5018137;28;19926;-78
2022/06/04 04:37:55;;;;;;;;;;;13.10;93.10;;;;;;5033089;28;20036;-78
2022/06/04 04:40:22;;;;;;;;;;;13.10;93.10;;;;;;5033266;28;20031;-80
2022/06/04 04:42:49;;;;;;;;;;;13.10;93.20;;;;;;5032660;28;20019;-80
2022/06/04 04:45:18;;;;;;;;;;;13.10;93.00;;;;;;5032552;28;19925;-79
2022/06/04 04:47:46;;;;;;;;;;;13.10;93.10;;;;;;5031358;28;20826;-80
2022/06/04 04:50:15;;;;;;;;;;;13.10;93.50;;;;;;5030187;28;19936;-80
2022/06/04 04:52:42;;;;;;;;;;;13.10;93.70;;;;;;5032244;28;20341;-80
2022/06/04 04:55:09;;;;;;;;;;;13.10;93.80;;;;;;5030685;28;20020;-80
2022/06/04 04:57:36;;;;;;;;;;;13.00;93.80;;;;;;5014685;28;19926;-80
2022/06/04 05:00:04;;;;;;;;;;;13.00;93.90;;;;;;5015259;28;19930;-80
2022/06/04 05:02:31;;;;;;;;;;;13.10;93.90;;;;;;5033147;28;20031;-79
2022/06/04 05:04:57;;;;;;;;;;;13.00;93.80;;;;;;5031953;28;19969;-79
2022/06/04 05:07:26;;;;;;;;;;;13.10;94.60;;;;;;5033599;28;20008;-79
2022/06/04 05:09:52;;;;;;;;;;;13.00;94.10;;;;;;5031242;28;19929;-79
2022/06/04 05:12:19;;;;;;;;;;;13.10;94.00;;;;;;5032098;28;20330;-78
2022/06/04 05:14:46;;;;;;;;;;;13.10;93.60;;;;;;5032557;28;19925;-79
2022/06/04 05:17:13;;;;;;;;;;;13.10;94.20;;;;;;5047839;28;20020;-78
2022/06/04 05:19:39;;;;;;;;;;;13.10;94.20;;;;;;5031564;28;20024;-78
2022/06/04 05:22:06;;;;;;;;;;;13.10;94.00;;;;;;5030459;28;19925;-79
2022/06/04 05:24:35;;;;;;;;;;;13.10;93.70;;;;;;5031978;28;19926;-78
2022/06/04 05:27:03;;;;;;;;;;;13.20;94.20;;;;;;5030639;28;20405;-78
2022/06/04 05:29:31;;;;;;;;;;;13.20;94.40;;;;;;5030846;28;19972;-79
2022/06/04 05:31:58;;;;;;;;;;;13.20;94.00;;;;;;5014598;28;20367;-79
2022/06/04 05:34:26;;;;;;;;;;;13.20;94.10;;;;;;5032731;28;19952;-79
2022/06/04 05:36:54;;;;;;;;;;;13.30;93.80;;;;;;5029270;28;19933;-78
2022/06/04 05:39:21;;;;;;;;;;;13.30;94.10;;;;;;5031503;28;19992;-79
2022/06/04 05:41:50;;;;;;;;;;;13.40;94.40;;;;;;5030620;28;19991;-79
2022/06/04 05:44:17;;;;;;;;;;;13.40;94.10;;;;;;5030126;28;19968;-79
2022/06/04 05:46:44;;;;;;;;;;;13.40;94.00;;;;;;5032157;28;20606;-79
2022/06/04 05:49:11;;;;;;;;;;;13.40;94.00;;;;;;4990988;28;1071494;-80
2022/06/04 05:51:39;;;;;;;;;;;13.50;94.40;;;;;;5047816;28;19925;-79
2022/06/04 05:54:06;;;;;;;;;;;13.50;93.90;;;;;;5032336;28;20004;-80
2022/06/04 05:56:34;;;;;;;;;;;13.50;94.10;;;;;;5028898;28;20015;-79
2022/06/04 05:59:03;;;;;;;;;;;13.60;94.10;;;;;;5032373;28;19929;-79
2022/06/04 06:01:31;;;;;;;;;;;13.60;93.90;;;;;;5049020;28;20379;-79
2022/06/04 06:03:59;;;;;;;;;;;13.60;94.20;;;;;;5032562;28;19929;-79
2022/06/04 06:06:27;;;;;;;;;;;13.60;94.20;;;;;;5032218;28;20033;-79
2022/06/04 06:08:55;;;;;;;;;;;13.70;94.10;;;;;;5031381;28;19929;-79
2022/06/04 06:11:22;;;;;;;;;;;13.70;94.70;;;;;;5033671;28;20418;-79
2022/06/04 06:13:49;;;;;;;;;;;13.80;94.40;;;;;;5023191;28;19956;-79
2022/06/04 06:16:18;;;;;;;;;;;13.80;94.40;;;;;;5031139;28;20012;-79
2022/06/04 06:18:45;;;;;;;;;;;13.80;94.30;;;;;;5015155;28;20504;-79
2022/06/04 06:21:13;;;;;;;;;;;13.80;94.10;;;;;;5032886;28;20399;-82
2022/06/04 06:23:40;;;;;;;;;;;13.80;94.30;;;;;;5013165;28;19925;-78
2022/06/04 06:26:08;;;;;;;;;;;13.80;94.10;;;;;;5031918;28;20366;-79
2022/06/04 06:28:35;;;;;;;;;;;13.90;94.10;;;;;;5032196;28;20180;-79
2022/06/04 06:31:02;;;;;;;;;;;13.90;94.60;;;;;;5014802;28;19925;-78
2022/06/04 06:33:31;;;;;;;;;;;14.00;94.20;;;;;;5014968;28;20055;-78
2022/06/04 06:35:58;;;;;;;;;;;14.00;94.30;;;;;;5047023;28;20020;-78
2022/06/04 06:38:25;;;;;;;;;;;14.00;94.30;;;;;;5031155;28;19936;-80
2022/06/04 06:40:53;;;;;;;;;;;14.10;94.60;;;;;;5047313;28;19936;-80
2022/06/04 06:43:20;;;;;;;;;;;14.10;94.40;;;;;;5030962;28;19926;-80
2022/06/04 06:45:47;;;;;;;;;;;14.20;94.40;;;;;;5027929;28;20383;-80
2022/06/04 06:48:14;;;;;;;;;;;14.20;94.20;;;;;;5029446;28;19936;-78
2022/06/04 06:50:43;;;;;;;;;;;14.20;94.10;;;;;;5029484;28;20411;-81
2022/06/04 06:53:09;;;;;;;;;;;14.30;94.10;;;;;;5032221;28;19932;-81
2022/06/04 06:55:36;;;;;;;;;;;14.30;94.10;;;;;;5015743;28;20032;-81
2022/06/04 06:58:03;;;;;;;;;;;14.30;94.20;;;;;;5031695;28;20027;-81
2022/06/04 07:00:30;;;;;;;;;;;14.30;94.10;;;;;;5031181;28;20499;-77
2022/06/04 07:02:56;;;;;;;;;;;14.40;94.20;;;;;;5030905;28;19965;-80
2022/06/04 07:05:23;;;;;;;;;;;14.50;94.10;;;;;;5027291;28;20008;-79
2022/06/04 07:07:51;;;;;;;;;;;14.50;94.20;;;;;;5028160;28;19929;-79
2022/06/04 07:10:18;;;;;;;;;;;14.50;94.10;;;;;;5029433;28;20314;-78
2022/06/04 07:12:45;;;;;;;;;;;14.60;93.90;;;;;;5032153;28;19926;-77
2022/06/04 07:15:12;;;;;;;;;;;14.60;93.80;;;;;;5032022;28;19925;-77
2022/06/04 07:17:39;;;;;;;;;;;14.70;93.80;;;;;;5028253;28;20032;-77
2022/06/04 07:20:06;;;;;;;;;;;14.70;94.00;;;;;;5030960;28;20526;-77
2022/06/04 07:22:33;;;;;;;;;;;14.80;94.00;;;;;;5030774;28;20396;-77
2022/06/04 07:25:01;;;;;;;;;;;14.80;93.90;;;;;;5028353;28;19925;-77
2022/06/04 07:27:28;;;;;;;;;;;14.80;93.80;;;;;;5030575;28;19929;-78
2022/06/04 07:29:54;;;;;;;;;;;14.90;93.90;;;;;;5030969;28;19925;-77
2022/06/04 07:32:21;;;;;;;;;;;14.90;93.80;;;;;;5031199;28;19931;-77
2022/06/04 07:34:48;;;;;;;;;;;14.90;93.70;;;;;;5031432;28;19926;-77
2022/06/04 07:37:16;;;;;;;;;;;15.00;93.50;;;;;;5030636;28;19929;-77
2022/06/04 07:39:43;;;;;;;;;;;15.00;93.50;;;;;;5031004;28;19925;-77
2022/06/04 07:42:11;;;;;;;;;;;15.00;93.40;;;;;;5032713;28;19979;-79
2022/06/04 07:44:37;;;;;;;;;;;15.10;93.50;;;;;;5032471;28;20016;-79
2022/06/04 07:47:04;;;;;;;;;;;15.20;93.40;;;;;;5031289;28;19935;-79
2022/06/04 07:49:31;;;;;;;;;;;15.20;93.40;;;;;;5030714;28;19925;-81
2022/06/04 07:51:58;;;;;;;;;;;15.20;93.30;;;;;;5030927;28;20027;-81
2022/06/04 07:54:24;;;;;;;;;;;15.30;93.30;;;;;;5031156;28;20338;-81
2022/06/04 07:56:54;;;;;;;;;;;15.30;93.20;;;;;;5030287;28;19987;-80
2022/06/04 07:59:22;;;;;;;;;;;15.30;93.30;;;;;;5030985;28;19926;-80
2022/06/04 08:01:48;;;;;;;;;;;15.40;93.20;;;;;;5013168;28;20024;-80
2022/06/04 08:04:15;;;;;;;;;;;15.40;93.20;;;;;;5028723;28;20028;-81
2022/06/04 08:06:42;;;;;;;;;;;15.50;93.50;;;;;;5028619;28;20446;-81
2022/06/04 08:09:09;;;;;;;;;;;15.50;93.30;;;;;;5032330;28;19925;-81
2022/06/04 08:11:36;;;;;;;;;;;15.50;93.30;;;;;;5031864;28;20554;-80
2022/06/04 08:14:08;;;;;;;;;;;15.60;93.50;;;;;;5031408;28;19925;-81
2022/06/04 08:16:37;;;;;;;;;;;15.60;93.30;;;;;;5032230;28;19929;-81
2022/06/04 08:19:04;;;;;;;;;;;15.70;93.20;;;;;;5032223;28;19925;-81
2022/06/04 08:21:31;;;;;;;;;;;15.70;93.20;;;;;;5033754;28;20398;-81
2022/06/04 08:23:58;;;;;;;;;;;15.80;93.20;;;;;;5033339;28;20002;-81
2022/06/04 08:26:25;;;;;;;;;;;15.80;93.10;;;;;;5034009;28;20031;-80
2022/06/04 08:28:52;;;;;;;;;;;15.80;93.10;;;;;;5032723;28;19972;-80
2022/06/04 08:31:19;;;;;;;;;;;15.90;92.90;;;;;;5032158;28;19964;-80
2022/06/04 08:33:48;;;;;;;;;;;15.90;92.70;;;;;;5033065;28;20016;-79
2022/06/04 08:36:16;;;;;;;;;;;15.90;92.70;;;;;;5031258;28;19929;-80
2022/06/04 08:38:43;;;;;;;;;;;16.00;92.80;;;;;;5031963;28;19988;-82
2022/06/04 08:41:19;;;;;;;;;;;16.00;92.80;;;;;;5032040;28;21535;-81
2022/06/04 08:43:49;;;;;;;;;;;16.10;92.80;;;;;;5031860;28;20024;-81
2022/06/04 08:46:17;;;;;;;;;;;16.10;92.90;;;;;;5029384;28;19929;-82
2022/06/04 08:48:45;;;;;;;;;;;16.20;93.00;;;;;;5047876;28;20152;-84
2022/06/04 08:51:18;;;;;;;;;;;16.20;92.70;;;;;;5032383;28;19929;-83
2022/06/04 08:53:45;;;;;;;;;;;16.30;92.40;;;;;;5033151;28;20240;-81
2022/06/04 08:59:05;;;;;;;;;;;16.40;92.00;;;;;;5031401;28;20140;-78
2022/06/04 09:01:34;;;;;;;;;;;16.40;91.90;;;;;;5015193;28;19932;-79
2022/06/04 09:04:10;;;;;;;;;;;16.40;92.00;;;;;;5032821;28;20048;-79
2022/06/04 09:06:43;;;;;;;;;;;16.50;91.80;;;;;;5032125;28;19936;-80
2022/06/04 09:09:13;;;;;;;;;;;16.50;91.90;;;;;;5032356;28;20015;-78
2022/06/04 09:11:44;;;;;;;;;;;16.50;92.00;;;;;;5017123;28;19931;-78
2022/06/04 09:14:22;;;;;;;;;;;16.60;92.20;;;;;;5032505;28;19925;-78
2022/06/04 09:16:50;;;;;;;;;;;16.70;92.20;;;;;;5032104;28;19933;-79
2022/06/04 09:19:18;;;;;;;;;;;16.80;92.20;;;;;;5030990;28;20450;-80
2022/06/04 09:21:46;;;;;;;;;;;16.90;92.20;;;;;;5032752;28;19925;-78
2022/06/04 09:24:13;;;;;;;;;;;16.90;92.30;;;;;;5034105;28;20016;-84
2022/06/04 09:26:41;;;;;;;;;;;17.00;92.20;;;;;;5016382;28;19929;-81
2022/06/04 09:29:25;;;;;;;;;;;17.10;91.90;;;;;;5032622;28;19925;-83
2022/06/04 09:31:56;;;;;;;;;;;17.20;91.90;;;;;;5030748;28;20008;-81
2022/06/04 09:34:25;;;;;;;;;;;17.30;91.70;;;;;;5016870;28;20039;-83
2022/06/04 09:36:54;;;;;;;;;;;17.30;91.70;;;;;;5030232;28;19929;-82
2022/06/04 09:39:22;;;;;;;;;;;17.40;91.70;;;;;;5031720;28;20052;-83
2022/06/04 09:41:53;;;;;;;;;;;17.50;91.80;;;;;;5032275;28;19929;-83
2022/06/04 09:44:20;;;;;;;;;;;17.50;91.70;;;;;;5032044;28;19968;-83
2022/06/04 09:46:48;;;;;;;;;;;17.60;91.30;;;;;;5031152;28;19952;-83
2022/06/04 09:49:28;;;;;;;;;;;17.70;91.50;;;;;;5031471;28;19975;-84
2022/06/04 09:51:57;;;;;;;;;;;17.80;91.40;;;;;;5031607;28;19925;-81
2022/06/04 09:54:25;;;;;;;;;;;17.80;91.50;;;;;;5032245;28;20049;-81
2022/06/04 09:56:53;;;;;;;;;;;17.90;91.30;;;;;;5032191;28;19929;-82
2022/06/04 09:59:21;;;;;;;;;;;18.00;91.20;;;;;;5032273;28;19971;-82
2022/06/04 10:01:58;;;;;;;;;;;18.10;91.30;;;;;;5032362;28;20371;-82
2022/06/04 10:04:35;;;;;;;;;;;18.20;91.10;;;;;;5033402;28;19967;-81
2022/06/04 10:07:06;;;;;;;;;;;18.20;91.10;;;;;;5031135;28;19929;-81
2022/06/04 10:12:21;;;;;;;;;;;18.40;90.60;;;;;;5011490;28;19932;-78
2022/06/04 10:14:56;;;;;;;;;;;18.50;90.50;;;;;;5013863;28;19980;-78
2022/06/04 10:17:33;;;;;;;;;;;18.50;90.60;;;;;;5012024;28;19937;-78
2022/06/04 10:20:00;;;;;;;;;;;18.60;90.40;;;;;;5025902;28;19925;-78
2022/06/04 10:22:28;;;;;;;;;;;18.70;90.20;;;;;;5030659;28;20413;-78
2022/06/04 10:24:56;;;;;;;;;;;18.80;89.50;;;;;;5030244;28;20411;-78
2022/06/04 10:27:31;;;;;;;;;;;18.80;89.40;;;;;;5029932;28;20056;-78
2022/06/04 10:30:03;;;;;;;;;;;18.90;89.10;;;;;;5030672;28;19925;-78
2022/06/04 10:32:35;;;;;;;;;;;18.90;89.10;;;;;;5028415;28;20020;-78
2022/06/04 10:35:07;;;;;;;;;;;18.90;89.10;;;;;;5031565;28;20016;-77
2022/06/04 10:37:41;;;;;;;;;;;19.00;89.70;;;;;;5028432;28;20288;-77
2022/06/04 10:40:35;;;;;;;;;;;19.10;89.20;;;;;;5033681;28;19925;-79
2022/06/04 10:43:08;;;;;;;;;;;19.20;89.40;;;;;;5048616;28;19925;-77
2022/06/04 10:45:38;;;;;;;;;;;19.30;88.60;;;;;;5032474;28;20417;-77
2022/06/04 10:48:10;;;;;;;;;;;19.40;87.80;;;;;;5033264;28;19929;-77
2022/06/04 10:53:28;;;;;;;;;;;19.50;87.10;;;;;;5031581;28;20378;-77
2022/06/04 10:55:56;;;;;;;;;;;19.60;86.80;;;;;;5029697;28;19965;-77
2022/06/04 10:58:30;;;;;;;;;;;19.60;86.00;;;;;;5032460;28;19932;-77
2022/06/04 11:01:00;;;;;;;;;;;19.70;86.00;;;;;;5030758;28;20016;-77
2022/06/04 11:03:32;;;;;;;;;;;19.70;85.60;;;;;;5031154;28;19932;-77
2022/06/04 11:06:02;;;;;;;;;;;19.70;85.30;;;;;;5031512;28;19925;-77
2022/06/04 11:08:33;;;;;;;;;;;19.80;83.70;;;;;;5032117;28;19960;-77
2022/06/04 11:11:01;;;;;;;;;;;19.90;83.40;;;;;;5032134;28;20418;-81
2022/06/04 11:13:32;;;;;;;;;;;19.90;82.90;;;;;;5014010;28;20019;-79
2022/06/04 11:16:01;;;;;;;;;;;20.00;84.20;;;;;;5013732;28;19926;-79
2022/06/04 11:18:33;;;;;;;;;;;20.10;83.70;;;;;;5045311;28;19929;-79
2022/06/04 11:21:06;;;;;;;;;;;20.20;83.80;;;;;;5029573;28;19964;-77
2022/06/04 11:23:38;;;;;;;;;;;20.20;83.40;;;;;;5029095;28;19930;-78
2022/06/04 11:26:07;;;;;;;;;;;20.30;82.90;;;;;;5028002;28;20403;-80
2022/06/04 11:28:33;;;;;;;;;;;20.40;82.00;;;;;;5030151;28;19929;-81
2022/06/04 11:31:07;;;;;;;;;;;20.40;82.50;;;;;;5013923;28;19925;-80
2022/06/04 11:33:38;;;;;;;;;;;20.50;81.40;;;;;;5031443;28;19925;-79
2022/06/04 11:36:11;;;;;;;;;;;20.60;80.20;;;;;;5032141;28;19932;-81
2022/06/04 11:38:46;;;;;;;;;;;20.60;80.40;;;;;;5045841;28;20023;-79
2022/06/04 11:41:21;;;;;;;;;;;20.70;81.10;;;;;;5030783;28;19925;-81
2022/06/04 11:43:57;;;;;;;;;;;20.70;80.30;;;;;;5033578;28;19929;-81
2022/06/04 11:46:32;;;;;;;;;;;20.80;78.40;;;;;;5035931;28;20020;-80
2022/06/04 11:49:13;;;;;;;;;;;20.80;79.10;;;;;;5032910;28;20044;-81
2022/06/04 11:51:46;;;;;;;;;;;20.90;79.50;;;;;;5033740;28;20389;-80
2022/06/04 11:54:34;;;;;;;;;;;20.90;79.70;;;;;;5033316;28;19925;-79
2022/06/04 11:57:08;;;;;;;;;;;21.00;79.70;;;;;;5035575;28;20015;-81
2022/06/04 11:59:41;;;;;;;;;;;21.10;78.70;;;;;;5034430;28;19988;-79
2022/06/04 12:02:12;;;;;;;;;;;21.10;78.80;;;;;;5032070;28;19931;-80
2022/06/04 12:04:42;;;;;;;;;;;21.10;78.50;;;;;;5018089;28;20400;-88
2022/06/04 12:07:12;;;;;;;;;;;21.20;79.30;;;;;;5018621;28;19931;-89
2022/06/04 12:09:42;;;;;;;;;;;21.20;77.90;;;;;;5018347;28;20454;-85
2022/06/04 12:12:13;;;;;;;;;;;21.30;78.90;;;;;;5034895;28;19925;-88
2022/06/04 12:14:43;;;;;;;;;;;21.30;78.00;;;;;;5018015;28;19925;-87
2022/06/04 12:17:17;;;;;;;;;;;21.40;77.90;;;;;;5051505;28;20435;-87
2022/06/04 12:25:34;;;;;;;;;;;21.50;78.20;;;;;;5032516;28;20063;-87
2022/06/04 12:28:04;;;;;;;;;;;21.60;76.10;;;;;;5016306;28;19930;-84
2022/06/04 12:30:39;;;;;;;;;;;21.60;76.30;;;;;;5016187;28;20121;-84
2022/06/04 12:33:10;;;;;;;;;;;21.70;77.00;;;;;;5017670;28;19925;-84
2022/06/04 12:35:37;;;;;;;;;;;21.70;76.90;;;;;;5050737;28;19929;-84
2022/06/04 12:38:12;;;;;;;;;;;21.70;76.90;;;;;;5033699;28;20380;-84
2022/06/04 12:40:39;;;;;;;;;;;21.80;76.90;;;;;;5034022;28;19935;-84
2022/06/04 12:43:10;;;;;;;;;;;21.80;76.40;;;;;;5034425;28;19965;-84
2022/06/04 12:45:39;;;;;;;;;;;21.90;76.20;;;;;;5034412;28;19932;-84
2022/06/04 12:48:21;;;;;;;;;;;21.90;75.20;;;;;;5034027;28;20677;-84
2022/06/04 12:50:49;;;;;;;;;;;21.90;73.90;;;;;;5033117;28;19929;-83
2022/06/04 12:53:18;;;;;;;;;;;22.00;75.30;;;;;;5049703;28;19964;-82
2022/06/04 12:55:47;;;;;;;;;;;22.10;75.50;;;;;;5033469;28;19925;-83
2022/06/04 12:58:26;;;;;;;;;;;22.10;73.90;;;;;;5049450;28;20403;-83
2022/06/04 13:00:56;;;;;;;;;;;22.20;74.70;;;;;;5033197;28;20032;-82
2022/06/04 13:03:27;;;;;;;;;;;22.20;72.10;;;;;;5050206;28;20410;-83
2022/06/04 13:06:00;;;;;;;;;;;22.20;72.80;;;;;;5033698;28;20027;-83
2022/06/04 13:08:31;;;;;;;;;;;22.30;71.60;;;;;;5049872;28;19925;-82
2022/06/04 13:11:03;;;;;;;;;;;22.30;72.50;;;;;;5032565;28;19935;-83
2022/06/04 13:13:42;;;;;;;;;;;22.40;72.30;;;;;;5033173;28;19932;-88
2022/06/04 13:16:17;;;;;;;;;;;22.40;71.60;;;;;;5032741;28;19925;-87
2022/06/04 13:18:44;;;;;;;;;;;22.40;71.70;;;;;;5032433;28;19925;-86
2022/06/04 13:21:12;;;;;;;;;;;22.40;70.60;;;;;;5016475;28;19988;-87
2022/06/04 13:23:41;;;;;;;;;;;22.40;72.10;;;;;;5033167;28;19929;-86
2022/06/04 13:26:17;;;;;;;;;;;22.40;72.00;;;;;;5033181;28;19925;-82
2022/06/04 13:28:46;;;;;;;;;;;22.40;71.40;;;;;;5031526;28;19925;-82
2022/06/04 13:31:18;;;;;;;;;;;22.50;71.00;;;;;;5015182;28;19929;-82
2022/06/04 13:33:45;;;;;;;;;;;22.50;72.10;;;;;;5033365;28;19925;-79
2022/06/04 13:36:12;;;;;;;;;;;22.50;72.50;;;;;;5034121;28;20016;-80
2022/06/04 13:38:40;;;;;;;;;;;22.60;73.10;;;;;;5031445;28;19931;-80
2022/06/04 13:41:08;;;;;;;;;;;22.60;71.50;;;;;;5015968;28;20597;-81
2022/06/04 13:43:39;;;;;;;;;;;22.60;72.30;;;;;;5031861;28;20091;-81
2022/06/04 13:46:13;;;;;;;;;;;22.70;72.30;;;;;;5032252;28;20058;-82
2022/06/04 13:48:49;;;;;;;;;;;22.70;71.10;;;;;;5031232;28;20016;-80
2022/06/04 13:51:19;;;;;;;;;;;22.70;70.40;;;;;;5047798;28;20474;-81
2022/06/04 13:53:47;;;;;;;;;;;22.70;70.60;;;;;;5032171;28;19983;-82
2022/06/04 13:56:15;;;;;;;;;;;22.70;70.40;;;;;;5032662;28;19960;-82
2022/06/04 13:58:43;;;;;;;;;;;22.70;71.20;;;;;;5031913;28;19925;-81
2022/06/04 14:01:16;;;;;;;;;;;22.70;70.70;;;;;;5032519;28;19929;-82
2022/06/04 14:03:46;;;;;;;;;;;22.70;71.70;;;;;;5031910;28;20292;-83
2022/06/04 14:06:12;;;;;;;;;;;22.70;71.60;;;;;;5048281;28;20000;-83
2022/06/04 14:08:46;;;;;;;;;;;22.70;71.00;;;;;;5031758;28;20024;-84
2022/06/04 14:11:17;;;;;;;;;;;22.70;71.40;;;;;;5029967;28;19929;-81
2022/06/04 14:13:53;;;;;;;;;;;22.70;70.10;;;;;;5031747;28;19925;-82
2022/06/04 14:16:29;;;;;;;;;;;22.80;70.30;;;;;;5031117;28;19925;-81
2022/06/04 14:19:02;;;;;;;;;;;22.80;70.70;;;;;;5029753;28;20356;-81
2022/06/04 14:21:34;;;;;;;;;;;22.80;70.30;;;;;;5031830;28;19930;-80
2022/06/04 14:24:05;;;;;;;;;;;22.90;72.30;;;;;;5031865;28;19940;-81
2022/06/04 14:26:37;;;;;;;;;;;22.90;71.90;;;;;;5029133;28;19984;-81
2022/06/04 14:29:12;;;;;;;;;;;23.00;71.20;;;;;;5032190;28;20458;-80
2022/06/04 14:31:44;;;;;;;;;;;23.10;70.80;;;;;;5016188;28;19937;-81
2022/06/04 14:34:11;;;;;;;;;;;23.20;70.50;;;;;;5031990;28;20376;-81
2022/06/04 14:36:46;;;;;;;;;;;23.20;70.70;;;;;;5031842;28;19925;-81
2022/06/04 14:39:13;;;;;;;;;;;23.30;70.90;;;;;;5015657;28;20376;-81
2022/06/04 14:41:48;;;;;;;;;;;23.40;71.00;;;;;;5030533;28;20024;-81
2022/06/04 14:44:33;;;;;;;;;;;23.50;70.10;;;;;;5029982;28;20404;-80
2022/06/04 14:47:15;;;;;;;;;;;23.60;70.70;;;;;;5029599;28;20027;-82
2022/06/04 14:49:49;;;;;;;;;;;23.70;69.90;;;;;;5030762;28;20390;-81
2022/06/04 14:52:23;;;;;;;;;;;23.80;69.70;;;;;;5030400;28;19961;-81